Erhard, Minnesota
Current Conditions -  °F | °C
As of 7:34 PM on Friday 31 Oct 2014 (Local Time) from KFFM Reporting Station
Clear Clear  
Wind Chill: 21°   Ceiling: Unl
Heat Index: 28°   Visibility: 10mi
Dew Point: 18°   Wind: 7mph
Humidity: 64%   Direction: 160°SSE
Pressure: 30.45"   Gusts: NA
Location:  46.49°N, 96.1°W
Report Text: KFFM 010034Z AUTO 16006KT 10SM CLR M02/M08 A3045 RMK AO2
Loading
Personal Weather Stations






























Interactive Weather Map
Tropical Storm Tracking
New forecast layout! Learn more

10-Day Weather Forecast

Advertisements
Track Severe Weather on mobile